sensor_id;sensor_type;location;lat;lon;timestamp;P1;durP1;ratioP1;P2;durP2;ratioP2
45618;SDS011;31343;47.520;19.144;2022-11-24T00:02:26;12.90;;;9.18;;
45618;SDS011;31343;47.520;19.144;2022-11-24T00:04:52;16.30;;;8.88;;
45618;SDS011;31343;47.520;19.144;2022-11-24T00:07:18;13.50;;;9.05;;
45618;SDS011;31343;47.520;19.144;2022-11-24T00:09:44;14.50;;;9.18;;
45618;SDS011;31343;47.520;19.144;2022-11-24T00:12:10;13.40;;;7.82;;
45618;SDS011;31343;47.520;19.144;2022-11-24T00:14:36;10.48;;;7.63;;
45618;SDS011;31343;47.520;19.144;2022-11-24T00:17:01;14.55;;;8.65;;
45618;SDS011;31343;47.520;19.144;2022-11-24T00:19:27;13.70;;;8.60;;
45618;SDS011;31343;47.520;19.144;2022-11-24T00:21:53;11.63;;;7.47;;
45618;SDS011;31343;47.520;19.144;2022-11-24T00:24:19;11.73;;;7.15;;
45618;SDS011;31343;47.520;19.144;2022-11-24T00:26:44;11.77;;;7.80;;
45618;SDS011;31343;47.520;19.144;2022-11-24T00:29:11;12.45;;;7.63;;
45618;SDS011;31343;47.520;19.144;2022-11-24T00:31:38;10.48;;;7.07;;
45618;SDS011;31343;47.520;19.144;2022-11-24T00:34:06;13.23;;;8.18;;
45618;SDS011;31343;47.520;19.144;2022-11-24T00:36:34;16.90;;;9.13;;
45618;SDS011;31343;47.520;19.144;2022-11-24T00:39:03;14.32;;;8.52;;
45618;SDS011;31343;47.520;19.144;2022-11-24T00:41:31;13.85;;;8.70;;
45618;SDS011;31343;47.520;19.144;2022-11-24T00:43:57;17.23;;;8.27;;
45618;SDS011;31343;47.520;19.144;2022-11-24T00:46:23;17.45;;;9.68;;
45618;SDS011;31343;47.520;19.144;2022-11-24T00:48:50;15.27;;;8.70;;
45618;SDS011;31343;47.520;19.144;2022-11-24T00:51:16;20.00;;;9.85;;
45618;SDS011;31343;47.520;19.144;2022-11-24T00:53:43;21.00;;;12.35;;
45618;SDS011;31343;47.520;19.144;2022-11-24T00:56:09;19.48;;;10.90;;
45618;SDS011;31343;47.520;19.144;2022-11-24T00:58:36;19.42;;;13.05;;
45618;SDS011;31343;47.520;19.144;2022-11-24T01:01:03;20.25;;;11.00;;
45618;SDS011;31343;47.520;19.144;2022-11-24T01:03:29;17.92;;;10.80;;
45618;SDS011;31343;47.520;19.144;2022-11-24T01:05:55;21.75;;;12.50;;
45618;SDS011;31343;47.520;19.144;2022-11-24T01:08:20;21.52;;;11.18;;
45618;SDS011;31343;47.520;19.144;2022-11-24T01:10:46;23.67;;;12.20;;
45618;SDS011;31343;47.520;19.144;2022-11-24T01:13:12;24.98;;;11.88;;
45618;SDS011;31343;47.520;19.144;2022-11-24T01:15:38;22.05;;;11.52;;
45618;SDS011;31343;47.520;19.144;2022-11-24T01:18:04;21.55;;;13.63;;
45618;SDS011;31343;47.520;19.144;2022-11-24T01:20:30;21.27;;;12.15;;
45618;SDS011;31343;47.520;19.144;2022-11-24T01:22:56;22.80;;;11.90;;
45618;SDS011;31343;47.520;19.144;2022-11-24T01:25:22;24.27;;;12.63;;
45618;SDS011;31343;47.520;19.144;2022-11-24T01:27:48;24.58;;;12.38;;
45618;SDS011;31343;47.520;19.144;2022-11-24T01:30:13;24.42;;;12.57;;
45618;SDS011;31343;47.520;19.144;2022-11-24T01:32:39;24.90;;;13.43;;
45618;SDS011;31343;47.520;19.144;2022-11-24T01:35:05;25.25;;;11.23;;
45618;SDS011;31343;47.520;19.144;2022-11-24T01:37:31;27.95;;;14.55;;
45618;SDS011;31343;47.520;19.144;2022-11-24T01:39:57;24.75;;;11.18;;
45618;SDS011;31343;47.520;19.144;2022-11-24T01:42:23;23.65;;;12.27;;
45618;SDS011;31343;47.520;19.144;2022-11-24T01:45:26;23.48;;;12.70;;
45618;SDS011;31343;47.520;19.144;2022-11-24T01:47:52;23.30;;;12.13;;
45618;SDS011;31343;47.520;19.144;2022-11-24T01:50:18;23.00;;;11.80;;
45618;SDS011;31343;47.520;19.144;2022-11-24T01:52:46;26.75;;;13.77;;
45618;SDS011;31343;47.520;19.144;2022-11-24T01:55:23;27.23;;;13.32;;
45618;SDS011;31343;47.520;19.144;2022-11-24T02:00:21;22.00;;;11.85;;
45618;SDS011;31343;47.520;19.144;2022-11-24T02:02:47;20.25;;;11.95;;
45618;SDS011;31343;47.520;19.144;2022-11-24T02:08:13;26.80;;;13.45;;
45618;SDS011;31343;47.520;19.144;2022-11-24T02:10:50;26.45;;;15.25;;
45618;SDS011;31343;47.520;19.144;2022-11-24T02:13:16;27.30;;;13.77;;
45618;SDS011;31343;47.520;19.144;2022-11-24T02:15:43;28.27;;;14.10;;
45618;SDS011;31343;47.520;19.144;2022-11-24T02:18:08;25.58;;;14.52;;
45618;SDS011;31343;47.520;19.144;2022-11-24T02:20:34;22.15;;;12.95;;
45618;SDS011;31343;47.520;19.144;2022-11-24T02:28:20;26.23;;;12.95;;
45618;SDS011;31343;47.520;19.144;2022-11-24T02:30:47;30.23;;;15.90;;
45618;SDS011;31343;47.520;19.144;2022-11-24T02:33:14;27.50;;;14.13;;
45618;SDS011;31343;47.520;19.144;2022-11-24T02:35:40;26.30;;;14.00;;
45618;SDS011;31343;47.520;19.144;2022-11-24T02:38:09;26.00;;;14.57;;
45618;SDS011;31343;47.520;19.144;2022-11-24T02:40:36;27.98;;;15.15;;
45618;SDS011;31343;47.520;19.144;2022-11-24T02:43:04;30.63;;;15.38;;
45618;SDS011;31343;47.520;19.144;2022-11-24T02:45:34;32.10;;;16.70;;
45618;SDS011;31343;47.520;19.144;2022-11-24T02:47:59;35.65;;;18.15;;
45618;SDS011;31343;47.520;19.144;2022-11-24T02:50:25;30.45;;;16.42;;
45618;SDS011;31343;47.520;19.144;2022-11-24T02:52:51;30.10;;;15.82;;
45618;SDS011;31343;47.520;19.144;2022-11-24T02:55:17;34.88;;;17.55;;
45618;SDS011;31343;47.520;19.144;2022-11-24T02:57:44;28.73;;;15.63;;
45618;SDS011;31343;47.520;19.144;2022-11-24T03:00:10;34.63;;;18.45;;
45618;SDS011;31343;47.520;19.144;2022-11-24T03:05:21;40.47;;;20.20;;
45618;SDS011;31343;47.520;19.144;2022-11-24T03:07:46;39.65;;;20.15;;
45618;SDS011;31343;47.520;19.144;2022-11-24T03:10:12;45.40;;;22.67;;
45618;SDS011;31343;47.520;19.144;2022-11-24T03:12:38;43.83;;;21.58;;
45618;SDS011;31343;47.520;19.144;2022-11-24T03:15:04;45.25;;;21.83;;
45618;SDS011;31343;47.520;19.144;2022-11-24T03:17:30;45.03;;;21.15;;
45618;SDS011;31343;47.520;19.144;2022-11-24T03:19:56;48.90;;;23.02;;
45618;SDS011;31343;47.520;19.144;2022-11-24T03:22:21;48.97;;;24.77;;
45618;SDS011;31343;47.520;19.144;2022-11-24T03:24:47;47.88;;;21.98;;
45618;SDS011;31343;47.520;19.144;2022-11-24T03:27:13;44.70;;;21.90;;
45618;SDS011;31343;47.520;19.144;2022-11-24T03:29:38;46.17;;;23.60;;
45618;SDS011;31343;47.520;19.144;2022-11-24T03:32:04;41.70;;;22.50;;
45618;SDS011;31343;47.520;19.144;2022-11-24T03:34:30;46.92;;;22.67;;
45618;SDS011;31343;47.520;19.144;2022-11-24T03:36:55;41.50;;;20.85;;
45618;SDS011;31343;47.520;19.144;2022-11-24T03:39:21;45.80;;;21.10;;
45618;SDS011;31343;47.520;19.144;2022-11-24T03:41:47;46.15;;;22.30;;
45618;SDS011;31343;47.520;19.144;2022-11-24T03:44:15;44.13;;;21.73;;
45618;SDS011;31343;47.520;19.144;2022-11-24T03:46:41;37.30;;;20.67;;
45618;SDS011;31343;47.520;19.144;2022-11-24T03:49:07;42.42;;;22.00;;
45618;SDS011;31343;47.520;19.144;2022-11-24T03:51:32;45.38;;;22.50;;
45618;SDS011;31343;47.520;19.144;2022-11-24T03:53:58;42.42;;;19.67;;
45618;SDS011;31343;47.520;19.144;2022-11-24T03:56:23;35.88;;;18.52;;
45618;SDS011;31343;47.520;19.144;2022-11-24T03:58:49;46.45;;;20.40;;
45618;SDS011;31343;47.520;19.144;2022-11-24T04:01:15;36.85;;;20.13;;
45618;SDS011;31343;47.520;19.144;2022-11-24T04:03:40;38.03;;;20.73;;
45618;SDS011;31343;47.520;19.144;2022-11-24T04:06:06;44.17;;;21.90;;
45618;SDS011;31343;47.520;19.144;2022-11-24T04:08:32;40.33;;;20.92;;
45618;SDS011;31343;47.520;19.144;2022-11-24T04:10:57;46.35;;;24.27;;
45618;SDS011;31343;47.520;19.144;2022-11-24T04:13:24;43.08;;;22.13;;
45618;SDS011;31343;47.520;19.144;2022-11-24T04:15:50;43.88;;;23.10;;
45618;SDS011;31343;47.520;19.144;2022-11-24T04:18:16;46.13;;;22.90;;
45618;SDS011;31343;47.520;19.144;2022-11-24T04:20:42;44.67;;;22.50;;
45618;SDS011;31343;47.520;19.144;2022-11-24T04:23:08;45.17;;;20.25;;
45618;SDS011;31343;47.520;19.144;2022-11-24T04:25:34;46.78;;;23.15;;
45618;SDS011;31343;47.520;19.144;2022-11-24T04:28:00;41.72;;;22.15;;
45618;SDS011;31343;47.520;19.144;2022-11-24T04:30:26;46.50;;;22.52;;
45618;SDS011;31343;47.520;19.144;2022-11-24T04:32:52;43.00;;;22.98;;
45618;SDS011;31343;47.520;19.144;2022-11-24T04:35:19;42.53;;;22.70;;
45618;SDS011;31343;47.520;19.144;2022-11-24T04:37:45;48.75;;;26.55;;
45618;SDS011;31343;47.520;19.144;2022-11-24T04:40:12;43.22;;;21.48;;
45618;SDS011;31343;47.520;19.144;2022-11-24T04:42:39;47.00;;;22.77;;
45618;SDS011;31343;47.520;19.144;2022-11-24T04:45:05;47.15;;;23.05;;
45618;SDS011;31343;47.520;19.144;2022-11-24T04:47:31;45.40;;;24.27;;
45618;SDS011;31343;47.520;19.144;2022-11-24T04:49:57;55.33;;;24.98;;
45618;SDS011;31343;47.520;19.144;2022-11-24T04:52:23;43.80;;;23.88;;
45618;SDS011;31343;47.520;19.144;2022-11-24T04:54:49;56.40;;;26.23;;
45618;SDS011;31343;47.520;19.144;2022-11-24T04:57:22;47.75;;;23.02;;
45618;SDS011;31343;47.520;19.144;2022-11-24T04:59:50;56.28;;;27.58;;
45618;SDS011;31343;47.520;19.144;2022-11-24T05:02:17;46.55;;;23.42;;
45618;SDS011;31343;47.520;19.144;2022-11-24T05:04:43;53.95;;;24.92;;
45618;SDS011;31343;47.520;19.144;2022-11-24T05:07:12;49.92;;;27.38;;
45618;SDS011;31343;47.520;19.144;2022-11-24T05:09:39;60.30;;;27.92;;
45618;SDS011;31343;47.520;19.144;2022-11-24T05:12:23;57.95;;;25.95;;
45618;SDS011;31343;47.520;19.144;2022-11-24T05:14:49;59.58;;;29.23;;
45618;SDS011;31343;47.520;19.144;2022-11-24T05:17:15;55.17;;;24.63;;
45618;SDS011;31343;47.520;19.144;2022-11-24T05:19:41;57.97;;;27.17;;
45618;SDS011;31343;47.520;19.144;2022-11-24T05:22:07;61.30;;;29.02;;
45618;SDS011;31343;47.520;19.144;2022-11-24T05:24:32;54.13;;;26.88;;
45618;SDS011;31343;47.520;19.144;2022-11-24T05:26:58;57.35;;;24.85;;
45618;SDS011;31343;47.520;19.144;2022-11-24T05:29:24;63.55;;;27.80;;
45618;SDS011;31343;47.520;19.144;2022-11-24T05:31:50;54.92;;;27.05;;
45618;SDS011;31343;47.520;19.144;2022-11-24T05:34:15;57.67;;;25.83;;
45618;SDS011;31343;47.520;19.144;2022-11-24T05:36:42;50.03;;;24.55;;
45618;SDS011;31343;47.520;19.144;2022-11-24T05:39:17;54.70;;;24.48;;
45618;SDS011;31343;47.520;19.144;2022-11-24T05:41:43;55.80;;;26.50;;
45618;SDS011;31343;47.520;19.144;2022-11-24T05:44:09;54.00;;;27.23;;
45618;SDS011;31343;47.520;19.144;2022-11-24T05:46:35;57.22;;;26.25;;
45618;SDS011;31343;47.520;19.144;2022-11-24T05:49:02;61.15;;;26.02;;
45618;SDS011;31343;47.520;19.144;2022-11-24T05:51:27;58.55;;;25.10;;
45618;SDS011;31343;47.520;19.144;2022-11-24T05:53:54;58.33;;;26.38;;
45618;SDS011;31343;47.520;19.144;2022-11-24T05:56:20;57.63;;;27.90;;
45618;SDS011;31343;47.520;19.144;2022-11-24T05:58:46;58.90;;;25.75;;
45618;SDS011;31343;47.520;19.144;2022-11-24T06:01:11;62.80;;;27.25;;
45618;SDS011;31343;47.520;19.144;2022-11-24T06:03:37;61.33;;;27.50;;
45618;SDS011;31343;47.520;19.144;2022-11-24T06:06:03;59.83;;;25.83;;
45618;SDS011;31343;47.520;19.144;2022-11-24T06:08:29;51.70;;;25.52;;
45618;SDS011;31343;47.520;19.144;2022-11-24T06:10:58;60.08;;;24.80;;
45618;SDS011;31343;47.520;19.144;2022-11-24T06:13:41;53.15;;;24.33;;
45618;SDS011;31343;47.520;19.144;2022-11-24T06:16:08;52.20;;;24.58;;
45618;SDS011;31343;47.520;19.144;2022-11-24T06:18:34;50.13;;;25.67;;
45618;SDS011;31343;47.520;19.144;2022-11-24T06:21:04;45.47;;;22.83;;
45618;SDS011;31343;47.520;19.144;2022-11-24T06:23:30;55.00;;;24.08;;
45618;SDS011;31343;47.520;19.144;2022-11-24T06:25:57;51.97;;;25.05;;
45618;SDS011;31343;47.520;19.144;2022-11-24T06:28:23;48.88;;;23.42;;
45618;SDS011;31343;47.520;19.144;2022-11-24T06:30:49;50.65;;;22.63;;
45618;SDS011;31343;47.520;19.144;2022-11-24T06:33:15;56.95;;;22.83;;
45618;SDS011;31343;47.520;19.144;2022-11-24T06:35:40;45.03;;;22.10;;
45618;SDS011;31343;47.520;19.144;2022-11-24T06:38:06;44.13;;;21.50;;
45618;SDS011;31343;47.520;19.144;2022-11-24T06:40:32;49.00;;;23.20;;
45618;SDS011;31343;47.520;19.144;2022-11-24T06:42:57;46.08;;;21.25;;
45618;SDS011;31343;47.520;19.144;2022-11-24T06:45:23;46.72;;;20.15;;
45618;SDS011;31343;47.520;19.144;2022-11-24T06:47:52;48.50;;;22.70;;
45618;SDS011;31343;47.520;19.144;2022-11-24T06:50:18;48.20;;;20.83;;
45618;SDS011;31343;47.520;19.144;2022-11-24T06:52:44;46.95;;;21.25;;
45618;SDS011;31343;47.520;19.144;2022-11-24T06:55:10;49.00;;;21.52;;
45618;SDS011;31343;47.520;19.144;2022-11-24T06:57:35;42.05;;;19.40;;
45618;SDS011;31343;47.520;19.144;2022-11-24T07:00:02;42.35;;;21.35;;
45618;SDS011;31343;47.520;19.144;2022-11-24T07:02:29;42.50;;;20.75;;
45618;SDS011;31343;47.520;19.144;2022-11-24T07:04:55;50.75;;;22.63;;
45618;SDS011;31343;47.520;19.144;2022-11-24T07:07:20;46.72;;;21.70;;
45618;SDS011;31343;47.520;19.144;2022-11-24T07:09:46;41.38;;;19.58;;
45618;SDS011;31343;47.520;19.144;2022-11-24T07:12:12;42.40;;;20.67;;
45618;SDS011;31343;47.520;19.144;2022-11-24T07:14:37;43.40;;;18.95;;
45618;SDS011;31343;47.520;19.144;2022-11-24T07:17:03;42.83;;;20.45;;
45618;SDS011;31343;47.520;19.144;2022-11-24T07:19:29;40.60;;;18.85;;
45618;SDS011;31343;47.520;19.144;2022-11-24T07:21:55;40.40;;;19.83;;
45618;SDS011;31343;47.520;19.144;2022-11-24T07:24:21;45.75;;;20.80;;
45618;SDS011;31343;47.520;19.144;2022-11-24T07:26:47;44.22;;;19.13;;
45618;SDS011;31343;47.520;19.144;2022-11-24T07:29:12;37.72;;;19.48;;
45618;SDS011;31343;47.520;19.144;2022-11-24T07:31:38;41.53;;;19.27;;
45618;SDS011;31343;47.520;19.144;2022-11-24T07:34:04;42.03;;;19.50;;
45618;SDS011;31343;47.520;19.144;2022-11-24T07:36:30;41.05;;;17.52;;
45618;SDS011;31343;47.520;19.144;2022-11-24T07:38:56;42.47;;;17.73;;
45618;SDS011;31343;47.520;19.144;2022-11-24T07:41:21;39.88;;;19.13;;
45618;SDS011;31343;47.520;19.144;2022-11-24T07:43:47;39.63;;;19.05;;
45618;SDS011;31343;47.520;19.144;2022-11-24T07:46:15;38.70;;;19.95;;
45618;SDS011;31343;47.520;19.144;2022-11-24T07:48:42;38.17;;;17.92;;
45618;SDS011;31343;47.520;19.144;2022-11-24T07:51:09;38.30;;;18.45;;
45618;SDS011;31343;47.520;19.144;2022-11-24T07:53:35;41.92;;;19.45;;
45618;SDS011;31343;47.520;19.144;2022-11-24T07:56:02;38.88;;;17.50;;
45618;SDS011;31343;47.520;19.144;2022-11-24T07:58:30;41.40;;;20.13;;
45618;SDS011;31343;47.520;19.144;2022-11-24T08:00:57;39.88;;;19.90;;
45618;SDS011;31343;47.520;19.144;2022-11-24T08:03:23;38.10;;;19.63;;
45618;SDS011;31343;47.520;19.144;2022-11-24T08:05:55;40.40;;;19.40;;
45618;SDS011;31343;47.520;19.144;2022-11-24T08:08:22;40.83;;;19.75;;
45618;SDS011;31343;47.520;19.144;2022-11-24T08:10:48;40.58;;;19.02;;
45618;SDS011;31343;47.520;19.144;2022-11-24T08:13:14;38.42;;;18.10;;
45618;SDS011;31343;47.520;19.144;2022-11-24T08:15:40;43.70;;;19.08;;
45618;SDS011;31343;47.520;19.144;2022-11-24T08:18:05;43.33;;;18.30;;
45618;SDS011;31343;47.520;19.144;2022-11-24T08:20:31;41.13;;;18.80;;
45618;SDS011;31343;47.520;19.144;2022-11-24T08:22:57;41.00;;;18.98;;
45618;SDS011;31343;47.520;19.144;2022-11-24T08:25:24;38.90;;;18.60;;
45618;SDS011;31343;47.520;19.144;2022-11-24T08:27:55;43.25;;;19.23;;
45618;SDS011;31343;47.520;19.144;2022-11-24T08:30:22;39.03;;;19.08;;
45618;SDS011;31343;47.520;19.144;2022-11-24T08:32:47;39.72;;;20.70;;
45618;SDS011;31343;47.520;19.144;2022-11-24T08:35:13;37.30;;;19.83;;
45618;SDS011;31343;47.520;19.144;2022-11-24T08:37:39;40.00;;;18.95;;
45618;SDS011;31343;47.520;19.144;2022-11-24T08:40:05;42.63;;;21.70;;
45618;SDS011;31343;47.520;19.144;2022-11-24T08:42:31;46.22;;;20.02;;
45618;SDS011;31343;47.520;19.144;2022-11-24T08:44:56;45.58;;;19.92;;
45618;SDS011;31343;47.520;19.144;2022-11-24T08:47:22;39.38;;;20.25;;
45618;SDS011;31343;47.520;19.144;2022-11-24T08:49:48;41.35;;;20.55;;
45618;SDS011;31343;47.520;19.144;2022-11-24T08:52:14;44.88;;;18.48;;
45618;SDS011;31343;47.520;19.144;2022-11-24T08:54:40;41.50;;;20.23;;
45618;SDS011;31343;47.520;19.144;2022-11-24T08:57:08;45.25;;;19.50;;
45618;SDS011;31343;47.520;19.144;2022-11-24T08:59:37;42.10;;;21.35;;
45618;SDS011;31343;47.520;19.144;2022-11-24T09:02:03;48.83;;;20.92;;
45618;SDS011;31343;47.520;19.144;2022-11-24T09:04:30;42.72;;;19.92;;
45618;SDS011;31343;47.520;19.144;2022-11-24T09:06:56;37.05;;;19.15;;
45618;SDS011;31343;47.520;19.144;2022-11-24T09:09:22;39.95;;;18.23;;
45618;SDS011;31343;47.520;19.144;2022-11-24T09:11:48;42.30;;;20.60;;
45618;SDS011;31343;47.520;19.144;2022-11-24T09:14:14;45.70;;;21.35;;
45618;SDS011;31343;47.520;19.144;2022-11-24T09:16:40;45.60;;;20.98;;
45618;SDS011;31343;47.520;19.144;2022-11-24T09:19:08;44.38;;;22.45;;
45618;SDS011;31343;47.520;19.144;2022-11-24T09:21:34;41.92;;;20.15;;
45618;SDS011;31343;47.520;19.144;2022-11-24T09:24:03;38.00;;;18.25;;
45618;SDS011;31343;47.520;19.144;2022-11-24T09:26:32;40.33;;;17.58;;
45618;SDS011;31343;47.520;19.144;2022-11-24T09:29:01;43.17;;;20.92;;
45618;SDS011;31343;47.520;19.144;2022-11-24T09:31:29;42.42;;;20.83;;
45618;SDS011;31343;47.520;19.144;2022-11-24T09:33:58;43.45;;;20.70;;
45618;SDS011;31343;47.520;19.144;2022-11-24T09:36:26;41.45;;;18.75;;
45618;SDS011;31343;47.520;19.144;2022-11-24T09:38:52;37.63;;;18.63;;
45618;SDS011;31343;47.520;19.144;2022-11-24T09:43:59;41.88;;;18.73;;
45618;SDS011;31343;47.520;19.144;2022-11-24T09:46:57;42.42;;;20.45;;
45618;SDS011;31343;47.520;19.144;2022-11-24T09:49:40;39.60;;;18.25;;
45618;SDS011;31343;47.520;19.144;2022-11-24T09:52:13;38.38;;;18.80;;
45618;SDS011;31343;47.520;19.144;2022-11-24T09:54:45;35.78;;;18.23;;
45618;SDS011;31343;47.520;19.144;2022-11-24T09:57:17;39.65;;;18.33;;
45618;SDS011;31343;47.520;19.144;2022-11-24T09:59:47;41.10;;;17.73;;
45618;SDS011;31343;47.520;19.144;2022-11-24T10:02:13;39.35;;;17.90;;
45618;SDS011;31343;47.520;19.144;2022-11-24T10:04:41;38.13;;;17.27;;
45618;SDS011;31343;47.520;19.144;2022-11-24T10:10:06;35.55;;;18.05;;
45618;SDS011;31343;47.520;19.144;2022-11-24T10:15:33;39.75;;;19.85;;
45618;SDS011;31343;47.520;19.144;2022-11-24T10:21:11;34.88;;;18.02;;
45618;SDS011;31343;47.520;19.144;2022-11-24T10:26:54;39.15;;;17.60;;
45618;SDS011;31343;47.520;19.144;2022-11-24T10:29:31;32.03;;;16.75;;
45618;SDS011;31343;47.520;19.144;2022-11-24T10:32:04;35.75;;;17.55;;
45618;SDS011;31343;47.520;19.144;2022-11-24T10:34:44;36.55;;;17.25;;
45618;SDS011;31343;47.520;19.144;2022-11-24T10:40:11;34.55;;;18.30;;
45618;SDS011;31343;47.520;19.144;2022-11-24T10:42:48;35.63;;;17.10;;
45618;SDS011;31343;47.520;19.144;2022-11-24T10:45:14;31.88;;;17.38;;
45618;SDS011;31343;47.520;19.144;2022-11-24T10:47:42;35.15;;;16.55;;
45618;SDS011;31343;47.520;19.144;2022-11-24T10:50:13;33.83;;;17.77;;
45618;SDS011;31343;47.520;19.144;2022-11-24T10:52:54;36.38;;;16.15;;
45618;SDS011;31343;47.520;19.144;2022-11-24T10:55:24;30.88;;;16.25;;
45618;SDS011;31343;47.520;19.144;2022-11-24T10:57:49;30.95;;;16.67;;
45618;SDS011;31343;47.520;19.144;2022-11-24T11:02:44;34.17;;;15.85;;
45618;SDS011;31343;47.520;19.144;2022-11-24T11:05:23;32.42;;;16.83;;
45618;SDS011;31343;47.520;19.144;2022-11-24T11:07:49;34.47;;;15.68;;
45618;SDS011;31343;47.520;19.144;2022-11-24T11:10:19;36.08;;;17.38;;
45618;SDS011;31343;47.520;19.144;2022-11-24T11:12:47;33.58;;;15.85;;
45618;SDS011;31343;47.520;19.144;2022-11-24T11:15:27;32.05;;;16.77;;
45618;SDS011;31343;47.520;19.144;2022-11-24T11:17:57;32.55;;;16.63;;
45618;SDS011;31343;47.520;19.144;2022-11-24T11:20:29;33.95;;;15.43;;
45618;SDS011;31343;47.520;19.144;2022-11-24T11:22:58;28.00;;;14.68;;
45618;SDS011;31343;47.520;19.144;2022-11-24T11:25:34;26.23;;;14.15;;
45618;SDS011;31343;47.520;19.144;2022-11-24T11:28:22;30.20;;;14.63;;
45618;SDS011;31343;47.520;19.144;2022-11-24T11:30:57;32.13;;;14.63;;
45618;SDS011;31343;47.520;19.144;2022-11-24T11:33:25;32.47;;;15.38;;
45618;SDS011;31343;47.520;19.144;2022-11-24T11:35:53;28.75;;;14.70;;
45618;SDS011;31343;47.520;19.144;2022-11-24T11:38:20;26.20;;;14.93;;
45618;SDS011;31343;47.520;19.144;2022-11-24T11:40:49;32.05;;;15.73;;
45618;SDS011;31343;47.520;19.144;2022-11-24T11:43:21;26.92;;;13.82;;
45618;SDS011;31343;47.520;19.144;2022-11-24T11:48:32;27.13;;;14.25;;
45618;SDS011;31343;47.520;19.144;2022-11-24T12:31:49;20.75;;;10.95;;
45618;SDS011;31343;47.520;19.144;2022-11-24T12:40:13;20.50;;;10.38;;
45618;SDS011;31343;47.520;19.144;2022-11-24T12:43:42;19.95;;;10.35;;
45618;SDS011;31343;47.520;19.144;2022-11-24T12:51:10;18.48;;;11.30;;
45618;SDS011;31343;47.520;19.144;2022-11-24T12:53:45;17.02;;;9.73;;
45618;SDS011;31343;47.520;19.144;2022-11-24T12:56:13;16.38;;;11.00;;
45618;SDS011;31343;47.520;19.144;2022-11-24T13:01:47;16.75;;;9.38;;
45618;SDS011;31343;47.520;19.144;2022-11-24T13:07:11;19.58;;;11.02;;
45618;SDS011;31343;47.520;19.144;2022-11-24T13:15:39;19.00;;;10.13;;
45618;SDS011;31343;47.520;19.144;2022-11-24T13:23:58;16.83;;;10.02;;
45618;SDS011;31343;47.520;19.144;2022-11-24T13:26:30;19.15;;;10.00;;
45618;SDS011;31343;47.520;19.144;2022-11-24T13:29:30;18.63;;;10.80;;
45618;SDS011;31343;47.520;19.144;2022-11-24T13:39:52;17.10;;;9.57;;
45618;SDS011;31343;47.520;19.144;2022-11-24T13:42:22;18.25;;;10.27;;
45618;SDS011;31343;47.520;19.144;2022-11-24T13:44:50;18.52;;;9.25;;
45618;SDS011;31343;47.520;19.144;2022-11-24T13:50:02;21.63;;;10.73;;
45618;SDS011;31343;47.520;19.144;2022-11-24T14:00:32;17.13;;;9.82;;
45618;SDS011;31343;47.520;19.144;2022-11-24T14:03:32;21.92;;;8.80;;
45618;SDS011;31343;47.520;19.144;2022-11-24T14:06:00;18.13;;;9.77;;
45618;SDS011;31343;47.520;19.144;2022-11-24T14:08:36;17.23;;;9.02;;
45618;SDS011;31343;47.520;19.144;2022-11-24T14:11:03;19.63;;;10.25;;
45618;SDS011;31343;47.520;19.144;2022-11-24T14:18:35;17.25;;;9.45;;
45618;SDS011;31343;47.520;19.144;2022-11-24T14:21:19;18.23;;;9.57;;
45618;SDS011;31343;47.520;19.144;2022-11-24T14:26:39;19.27;;;9.55;;
45618;SDS011;31343;47.520;19.144;2022-11-24T14:29:13;18.40;;;9.65;;
45618;SDS011;31343;47.520;19.144;2022-11-24T14:31:39;15.88;;;9.57;;
45618;SDS011;31343;47.520;19.144;2022-11-24T14:36:37;16.83;;;9.32;;
45618;SDS011;31343;47.520;19.144;2022-11-24T14:39:03;20.35;;;9.73;;
45618;SDS011;31343;47.520;19.144;2022-11-24T14:41:29;17.73;;;9.75;;
45618;SDS011;31343;47.520;19.144;2022-11-24T14:46:45;16.58;;;10.07;;
45618;SDS011;31343;47.520;19.144;2022-11-24T14:49:21;22.73;;;11.02;;
45618;SDS011;31343;47.520;19.144;2022-11-24T14:51:57;19.55;;;9.77;;
45618;SDS011;31343;47.520;19.144;2022-11-24T14:54:27;20.17;;;10.10;;
45618;SDS011;31343;47.520;19.144;2022-11-24T14:56:54;19.23;;;10.60;;
45618;SDS011;31343;47.520;19.144;2022-11-24T14:59:21;16.95;;;10.05;;
45618;SDS011;31343;47.520;19.144;2022-11-24T15:01:49;19.98;;;10.38;;
45618;SDS011;31343;47.520;19.144;2022-11-24T15:04:16;21.30;;;10.93;;
45618;SDS011;31343;47.520;19.144;2022-11-24T15:09:50;20.58;;;11.30;;
45618;SDS011;31343;47.520;19.144;2022-11-24T15:12:30;20.65;;;12.02;;
45618;SDS011;31343;47.520;19.144;2022-11-24T15:15:03;21.85;;;11.88;;
45618;SDS011;31343;47.520;19.144;2022-11-24T15:17:49;24.98;;;12.25;;
45618;SDS011;31343;47.520;19.144;2022-11-24T15:20:35;20.80;;;10.83;;
45618;SDS011;31343;47.520;19.144;2022-11-24T15:25:52;20.20;;;11.18;;
45618;SDS011;31343;47.520;19.144;2022-11-24T15:28:18;21.17;;;10.57;;
45618;SDS011;31343;47.520;19.144;2022-11-24T15:30:49;22.50;;;11.57;;
45618;SDS011;31343;47.520;19.144;2022-11-24T15:33:25;21.08;;;12.15;;
45618;SDS011;31343;47.520;19.144;2022-11-24T15:35:51;21.45;;;11.20;;
45618;SDS011;31343;47.520;19.144;2022-11-24T15:38:17;18.83;;;10.60;;
45618;SDS011;31343;47.520;19.144;2022-11-24T15:40:44;22.67;;;12.75;;
45618;SDS011;31343;47.520;19.144;2022-11-24T15:45:52;22.08;;;12.77;;
45618;SDS011;31343;47.520;19.144;2022-11-24T15:48:18;26.98;;;11.27;;
45618;SDS011;31343;47.520;19.144;2022-11-24T15:50:44;21.40;;;12.05;;
45618;SDS011;31343;47.520;19.144;2022-11-24T15:53:32;23.00;;;12.25;;
45618;SDS011;31343;47.520;19.144;2022-11-24T15:56:28;21.42;;;11.80;;
45618;SDS011;31343;47.520;19.144;2022-11-24T15:58:54;20.38;;;10.13;;
45618;SDS011;31343;47.520;19.144;2022-11-24T16:01:20;21.42;;;12.07;;
45618;SDS011;31343;47.520;19.144;2022-11-24T16:03:47;20.00;;;10.80;;
45618;SDS011;31343;47.520;19.144;2022-11-24T16:06:14;22.83;;;11.52;;
45618;SDS011;31343;47.520;19.144;2022-11-24T16:08:41;22.65;;;12.70;;
45618;SDS011;31343;47.520;19.144;2022-11-24T16:11:07;20.88;;;12.18;;
45618;SDS011;31343;47.520;19.144;2022-11-24T16:13:33;18.13;;;10.43;;
45618;SDS011;31343;47.520;19.144;2022-11-24T16:15:58;17.08;;;10.27;;
45618;SDS011;31343;47.520;19.144;2022-11-24T16:18:24;24.85;;;12.30;;
45618;SDS011;31343;47.520;19.144;2022-11-24T16:20:50;21.95;;;10.95;;
45618;SDS011;31343;47.520;19.144;2022-11-24T16:23:15;22.48;;;11.43;;
45618;SDS011;31343;47.520;19.144;2022-11-24T16:25:41;19.17;;;10.98;;
45618;SDS011;31343;47.520;19.144;2022-11-24T16:28:07;25.83;;;13.07;;
45618;SDS011;31343;47.520;19.144;2022-11-24T16:30:32;24.80;;;12.57;;
45618;SDS011;31343;47.520;19.144;2022-11-24T16:33:01;25.30;;;12.40;;
45618;SDS011;31343;47.520;19.144;2022-11-24T16:35:29;23.70;;;12.95;;
45618;SDS011;31343;47.520;19.144;2022-11-24T16:37:54;23.75;;;12.52;;
45618;SDS011;31343;47.520;19.144;2022-11-24T16:40:20;24.38;;;12.48;;
45618;SDS011;31343;47.520;19.144;2022-11-24T16:42:46;29.02;;;14.88;;
45618;SDS011;31343;47.520;19.144;2022-11-24T16:45:11;25.23;;;13.05;;